createdAt,value
2018-05-18T00:00:13.243Z,10.87
2018-05-18T00:02:20.303Z,10.87
2018-05-18T00:04:27.293Z,10.87
2018-05-18T00:06:33.107Z,10.40
2018-05-18T00:08:39.040Z,10.77
2018-05-18T00:10:44.797Z,9.53
2018-05-18T00:12:50.476Z,9.93
2018-05-18T00:14:56.541Z,9.60
2018-05-18T00:17:02.146Z,10.20
2018-05-18T00:19:09.867Z,10.53
2018-05-18T00:21:17.967Z,9.67
2018-05-18T00:23:24.835Z,10.03
2018-05-18T00:25:30.010Z,8.70
2018-05-18T00:27:36.141Z,9.30
2018-05-18T00:29:41.974Z,9.27
2018-05-18T00:31:47.874Z,9.53
2018-05-18T00:33:53.949Z,8.07
2018-05-18T00:35:59.577Z,9.40
2018-05-18T00:38:04.859Z,8.57
2018-05-18T00:40:14.140Z,8.23
2018-05-18T00:42:20.970Z,8.70
2018-05-18T00:44:26.357Z,8.53
2018-05-18T00:46:31.813Z,8.40
2018-05-18T00:48:37.889Z,9.00
2018-05-18T00:50:44.029Z,8.47
2018-05-18T00:52:50.355Z,8.00
2018-05-18T00:54:56.189Z,9.20
2018-05-18T00:57:02.160Z,7.60
2018-05-18T00:59:08.472Z,8.93
2018-05-18T01:01:16.712Z,8.80
2018-05-18T01:03:23.898Z,7.30
2018-05-18T01:05:29.927Z,7.97
2018-05-18T01:07:35.691Z,8.00
2018-05-18T01:09:40.849Z,7.20
2018-05-18T01:11:46.121Z,7.67
2018-05-18T01:13:52.325Z,6.93
2018-05-18T01:15:57.567Z,7.30
2018-05-18T01:18:03.553Z,8.23
2018-05-18T01:20:12.253Z,7.40
2018-05-18T01:22:19.294Z,7.63
2018-05-18T01:24:25.439Z,7.87
2018-05-18T01:26:31.571Z,7.67
2018-05-18T01:28:37.162Z,8.30
2018-05-18T01:30:43.082Z,8.80
2018-05-18T01:32:49.182Z,8.10
2018-05-18T01:34:54.995Z,7.97
2018-05-18T01:37:01.224Z,7.60
2018-05-18T01:39:10.253Z,7.80
2018-05-18T01:41:17.294Z,8.47
2018-05-18T01:43:25.126Z,7.50
2018-05-18T01:45:31.445Z,7.70
2018-05-18T01:47:38.034Z,7.93
2018-05-18T01:49:44.093Z,8.93
2018-05-18T01:51:50.480Z,7.40
2018-05-18T01:53:56.485Z,7.37
2018-05-18T01:56:02.655Z,7.80
2018-05-18T01:58:11.037Z,7.77
2018-05-18T02:00:19.619Z,8.13
2018-05-18T02:02:25.578Z,7.40
2018-05-18T02:04:31.433Z,7.03
2018-05-18T02:06:36.919Z,7.90
2018-05-18T02:08:43.248Z,7.50
2018-05-18T02:10:49.555Z,6.90
2018-05-18T02:12:55.241Z,7.20
2018-05-18T02:15:01.354Z,7.23
2018-05-18T02:17:09.020Z,7.50
2018-05-18T02:19:17.366Z,7.00
2018-05-18T02:21:24.188Z,7.67
2018-05-18T02:23:30.584Z,7.10
2018-05-18T02:25:36.871Z,7.53
2018-05-18T02:27:42.929Z,7.17
2018-05-18T02:29:49.361Z,6.60
2018-05-18T02:31:55.666Z,6.80
2018-05-18T02:34:02.367Z,6.77
2018-05-18T02:36:10.024Z,7.23
2018-05-18T02:38:18.074Z,7.60
2018-05-18T02:40:25.234Z,7.90
2018-05-18T02:42:30.800Z,7.23
2018-05-18T02:44:37.152Z,7.20
2018-05-18T02:46:43.364Z,6.63
2018-05-18T02:48:48.920Z,6.90
2018-05-18T02:50:54.989Z,7.60
2018-05-18T02:53:00.862Z,6.90
2018-05-18T02:55:06.891Z,7.40
2018-05-18T02:57:15.835Z,7.03
2018-05-18T02:59:22.553Z,7.47
2018-05-18T03:01:27.858Z,6.70
2018-05-18T03:03:33.997Z,6.83
2018-05-18T03:05:39.552Z,7.93
2018-05-18T03:07:45.504Z,7.23
2018-05-18T03:09:51.614Z,6.50
2018-05-18T03:11:58.196Z,6.53
2018-05-18T03:14:03.546Z,6.60
2018-05-18T03:16:11.019Z,6.90
2018-05-18T03:18:19.124Z,6.40
2018-05-18T03:20:25.374Z,6.37
2018-05-18T03:22:30.686Z,6.57
2018-05-18T03:24:36.433Z,7.33
2018-05-18T03:26:42.136Z,6.93
2018-05-18T03:28:47.957Z,7.03
2018-05-18T03:30:53.882Z,7.10
2018-05-18T03:32:59.775Z,7.40
2018-05-18T03:35:05.478Z,7.10
2018-05-18T03:37:14.998Z,6.63
2018-05-18T03:39:21.636Z,7.00
2018-05-18T03:41:27.404Z,6.80
2018-05-18T03:43:32.553Z,6.93
2018-05-18T03:45:37.729Z,6.43
2018-05-18T03:47:42.942Z,7.50
2018-05-18T03:49:48.653Z,6.60
2018-05-18T03:51:54.392Z,6.90
2018-05-18T03:53:59.880Z,7.10
2018-05-18T03:56:05.577Z,6.93
2018-05-18T03:58:14.472Z,7.00
2018-05-18T04:00:22.099Z,7.57
2018-05-18T04:04:41.669Z,6.53
2018-05-18T04:07:58.433Z,6.33
2018-05-18T04:10:03.991Z,6.10
2018-05-18T04:12:12.050Z,7.50
2018-05-18T04:14:19.456Z,7.37
2018-05-18T04:16:25.617Z,8.00
2018-05-18T04:18:31.389Z,6.70
2018-05-18T04:20:36.590Z,6.37
2018-05-18T04:22:42.236Z,6.80
2018-05-18T04:24:47.797Z,7.20
2018-05-18T04:26:52.966Z,7.67
2018-05-18T04:28:58.817Z,7.10
2018-05-18T04:31:04.745Z,7.17
2018-05-18T04:33:13.531Z,6.87
2018-05-18T04:35:21.169Z,6.90
2018-05-18T04:37:27.458Z,6.30
2018-05-18T04:39:33.171Z,7.30
2018-05-18T04:41:38.713Z,6.47
2018-05-18T04:43:43.889Z,7.10
2018-05-18T04:45:49.106Z,7.30
2018-05-18T04:47:54.626Z,6.10
2018-05-18T04:49:59.807Z,6.57
2018-05-18T04:52:05.479Z,6.87
2018-05-18T04:54:14.597Z,7.10
2018-05-18T04:56:20.883Z,6.90
2018-05-18T04:58:26.749Z,7.37
2018-05-18T05:00:32.192Z,6.37
2018-05-18T05:02:37.405Z,6.40
2018-05-18T05:04:42.650Z,7.80
2018-05-18T05:06:48.429Z,6.60
2018-05-18T05:08:53.986Z,6.47
2018-05-18T05:10:59.366Z,7.03
2018-05-18T05:13:05.057Z,7.00
2018-05-18T05:15:14.302Z,6.83
2018-05-18T05:17:22.341Z,7.00
2018-05-18T05:19:27.972Z,7.00
2018-05-18T05:21:33.131Z,7.10
2018-05-18T05:23:38.333Z,6.80
2018-05-18T05:25:43.821Z,6.90
2018-05-18T05:27:50.227Z,7.20
2018-05-18T05:29:55.676Z,6.43
2018-05-18T05:32:01.309Z,32.20
2018-05-18T05:34:07.314Z,85.23
2018-05-18T05:36:16.612Z,123.93
2018-05-18T05:38:24.629Z,120.53
2018-05-18T05:40:29.873Z,120.97
2018-05-18T05:42:35.057Z,89.90
2018-05-18T05:44:40.926Z,78.47
2018-05-18T05:46:46.536Z,87.63
2018-05-18T05:48:51.754Z,75.47
2018-05-18T05:50:57.278Z,62.70
2018-05-18T05:53:02.553Z,57.87
2018-05-18T05:55:09.427Z,58.20
2018-05-18T05:57:18.601Z,44.40
2018-05-18T05:59:24.787Z,45.57
2018-05-18T06:01:29.960Z,42.50
2018-05-18T06:03:35.449Z,45.10
2018-05-18T06:05:41.188Z,283.00
2018-05-18T06:07:49.553Z,244.00
2018-05-18T06:09:55.172Z,179.40
2018-05-18T06:12:00.364Z,201.60
2018-05-18T06:14:06.362Z,130.67
2018-05-18T06:16:15.333Z,130.10
2018-05-18T06:18:21.578Z,132.40
2018-05-18T06:20:26.978Z,197.93
2018-05-18T06:22:32.640Z,218.20
2018-05-18T06:24:37.973Z,239.70
2018-05-18T06:26:43.138Z,292.90
2018-05-18T06:28:48.658Z,193.73
2018-05-18T06:30:53.858Z,175.40
2018-05-18T06:32:59.092Z,139.17
2018-05-18T06:35:04.815Z,150.43
2018-05-18T06:37:12.945Z,141.00
2018-05-18T06:39:19.824Z,155.60
2018-05-18T06:41:25.653Z,237.20
2018-05-18T06:43:30.858Z,360.70
2018-05-18T06:45:36.178Z,267.50
2018-05-18T06:47:41.670Z,236.00
2018-05-18T06:49:47.287Z,506.10
2018-05-18T06:51:52.780Z,486.20
2018-05-18T06:53:58.658Z,437.50
2018-05-18T06:56:03.877Z,158.23
2018-05-18T06:58:11.919Z,108.43
2018-05-18T07:00:18.676Z,101.07
2018-05-18T07:02:25.735Z,84.77
2018-05-18T07:04:30.971Z,76.07
2018-05-18T07:06:36.474Z,67.30
2018-05-18T07:08:41.744Z,67.20
2018-05-18T07:10:46.975Z,404.83
2018-05-18T07:12:52.600Z,889.10
2018-05-18T07:14:58.195Z,858.27
2018-05-18T07:17:03.728Z,504.77
2018-05-18T07:19:10.739Z,169.17
2018-05-18T07:21:18.083Z,73.27
2018-05-18T07:23:24.122Z,52.03
2018-05-18T07:25:29.673Z,247.83
2018-05-18T07:27:35.128Z,348.87
2018-05-18T07:29:40.451Z,263.93
2018-05-18T07:31:46.095Z,236.93
2018-05-18T07:33:51.441Z,143.90
2018-05-18T07:35:56.923Z,141.03
2018-05-18T07:38:02.543Z,126.63
2018-05-18T07:40:11.336Z,82.93
2018-05-18T07:42:17.657Z,87.10
2018-05-18T07:44:24.065Z,70.53
2018-05-18T07:46:29.403Z,87.40
2018-05-18T07:48:34.610Z,74.40
2018-05-18T07:50:42.239Z,65.60
2018-05-18T07:52:47.624Z,47.43
2018-05-18T07:54:52.895Z,52.33
2018-05-18T07:56:58.729Z,42.37
2018-05-18T07:59:04.105Z,37.27
2018-05-18T08:01:14.313Z,39.10
2018-05-18T08:03:21.197Z,34.90
2018-05-18T08:05:27.423Z,32.80
2018-05-18T08:07:32.809Z,25.07
2018-05-18T08:09:39.425Z,27.40
2018-05-18T08:11:44.717Z,27.67
2018-05-18T08:13:49.860Z,23.57
2018-05-18T08:15:55.398Z,22.80
2018-05-18T08:18:00.717Z,20.97
2018-05-18T08:20:06.391Z,325.10
2018-05-18T08:22:15.447Z,376.27
2018-05-18T08:24:23.128Z,476.87
2018-05-18T08:26:28.411Z,297.17
2018-05-18T08:28:42.985Z,167.63
2018-05-18T08:30:56.722Z,143.43
2018-05-18T08:33:02.016Z,97.07
2018-05-18T08:35:08.748Z,98.77
2018-05-18T08:37:16.625Z,73.37
2018-05-18T08:39:23.083Z,69.53
2018-05-18T08:41:28.807Z,67.13
2018-05-18T08:43:34.220Z,48.37
2018-05-18T08:45:39.413Z,48.00
2018-05-18T08:47:45.018Z,38.00
2018-05-18T08:49:50.143Z,46.80
2018-05-18T08:51:55.559Z,36.43
2018-05-18T08:54:01.067Z,37.50
2018-05-18T08:56:07.236Z,30.60
2018-05-18T08:58:14.791Z,32.67
2018-05-18T09:00:23.402Z,27.70
2018-05-18T09:02:29.223Z,28.60
2018-05-18T09:04:34.514Z,24.20
2018-05-18T09:06:40.748Z,23.40
2018-05-18T09:08:46.081Z,22.67
2018-05-18T09:10:51.312Z,22.20
2018-05-18T09:12:56.985Z,23.60
2018-05-18T09:17:24.323Z,19.40
2018-05-18T09:19:29.793Z,18.37
2018-05-18T09:21:35.121Z,18.20
2018-05-18T09:23:41.099Z,18.20
2018-05-18T09:25:46.621Z,16.37
2018-05-18T09:27:51.949Z,16.43
2018-05-18T09:29:58.746Z,15.53
2018-05-18T09:32:04.253Z,14.60
2018-05-18T09:34:12.029Z,20.47
2018-05-18T09:36:18.605Z,225.43
2018-05-18T09:38:25.594Z,283.97
2018-05-18T09:40:31.002Z,240.10
2018-05-18T09:42:36.712Z,298.27
2018-05-18T09:44:43.090Z,495.37
2018-05-18T09:46:48.478Z,225.20
2018-05-18T09:48:54.309Z,99.93
2018-05-18T09:51:00.214Z,690.13
2018-05-18T09:53:05.684Z,702.13
2018-05-18T09:55:14.399Z,340.20
2018-05-18T09:57:21.435Z,494.97
2018-05-18T09:59:26.747Z,546.13
2018-05-18T10:01:32.183Z,122.77
2018-05-18T10:03:37.945Z,287.40
2018-05-18T10:05:43.761Z,180.30
2018-05-18T10:07:49.279Z,148.90
2018-05-18T10:09:55.357Z,572.57
2018-05-18T10:12:00.522Z,320.67
2018-05-18T10:14:06.277Z,518.10
2018-05-18T10:16:13.676Z,128.73
2018-05-18T10:18:20.828Z,164.67
2018-05-18T10:20:28.200Z,111.60
2018-05-18T10:22:33.669Z,119.40
2018-05-18T10:24:39.876Z,140.93
2018-05-18T10:26:45.206Z,559.03
2018-05-18T10:28:50.885Z,518.53
2018-05-18T10:30:56.171Z,656.43
2018-05-18T10:33:01.497Z,119.43
2018-05-18T10:35:07.400Z,55.87
2018-05-18T10:37:14.761Z,35.67
2018-05-18T10:39:21.637Z,390.27
2018-05-18T10:41:29.434Z,396.97
2018-05-18T10:43:35.124Z,291.90
2018-05-18T10:45:40.450Z,208.83
2018-05-18T10:47:46.542Z,188.23
2018-05-18T10:49:51.950Z,162.63
2018-05-18T10:51:57.141Z,112.80
2018-05-18T10:54:03.137Z,105.07
2018-05-18T10:56:09.816Z,77.43
2018-05-18T10:58:16.976Z,78.60
2018-05-18T11:00:24.657Z,68.47
2018-05-18T11:02:29.835Z,55.20
2018-05-18T11:04:35.714Z,53.87
2018-05-18T11:06:41.238Z,50.73
2018-05-18T11:08:46.477Z,54.27
2018-05-18T11:10:51.806Z,47.63
2018-05-18T11:12:57.455Z,45.50
2018-05-18T11:15:02.998Z,42.23
2018-05-18T11:17:10.433Z,40.63
2018-05-18T11:19:20.110Z,43.40
2018-05-18T11:21:26.382Z,30.47
2018-05-18T11:23:31.683Z,32.70
2018-05-18T11:25:38.226Z,26.07
2018-05-18T11:27:44.046Z,30.07
2018-05-18T11:29:49.145Z,28.27
2018-05-18T11:31:54.626Z,22.40
2018-05-18T11:33:59.902Z,21.33
2018-05-18T11:36:05.358Z,19.90
2018-05-18T11:38:14.414Z,22.60
2018-05-18T11:40:21.683Z,19.77
2018-05-18T11:42:27.161Z,21.90
2018-05-18T11:44:32.751Z,17.97
2018-05-18T11:46:38.074Z,19.10
2018-05-18T11:48:43.420Z,17.70
2018-05-18T11:50:48.925Z,16.70
2018-05-18T11:52:54.226Z,16.30
2018-05-18T11:54:59.542Z,14.73
2018-05-18T11:57:05.134Z,14.37
2018-05-18T11:59:13.553Z,13.07
2018-05-18T12:01:20.971Z,13.63
2018-05-18T12:03:26.618Z,14.80
2018-05-18T12:05:31.887Z,200.63
2018-05-18T12:07:37.014Z,231.23
2018-05-18T12:09:42.438Z,457.10
2018-05-18T12:11:47.607Z,376.43
2018-05-18T12:13:52.776Z,215.87
2018-05-18T12:15:58.160Z,125.50
2018-05-18T12:18:03.301Z,94.07
2018-05-18T12:20:10.317Z,89.30
2018-05-18T12:22:17.919Z,78.90
2018-05-18T12:24:23.775Z,265.40
2018-05-18T12:26:29.036Z,108.37
2018-05-18T12:28:34.576Z,84.80
2018-05-18T12:30:39.994Z,316.07
2018-05-18T12:32:45.318Z,283.67
2018-05-18T12:34:50.749Z,232.27
2018-05-18T12:36:56.001Z,248.70
2018-05-18T12:39:01.166Z,281.37
2018-05-18T12:41:07.309Z,239.30
2018-05-18T12:43:15.816Z,242.37
2018-05-18T12:45:22.703Z,384.27
2018-05-18T12:47:29.094Z,117.50
2018-05-18T12:49:34.258Z,52.47
2018-05-18T12:51:39.419Z,47.17
2018-05-18T12:53:45.354Z,32.90
2018-05-18T12:55:50.470Z,28.43
2018-05-18T12:57:55.648Z,27.30
2018-05-18T13:00:01.070Z,25.27
2018-05-18T13:02:06.602Z,390.97
2018-05-18T13:04:14.577Z,130.07
2018-05-18T13:06:20.397Z,277.93
2018-05-18T13:08:26.436Z,184.07
2018-05-18T13:10:31.567Z,193.13
2018-05-18T13:12:37.043Z,176.67
2018-05-18T13:14:42.221Z,150.73
2018-05-18T13:16:47.331Z,125.83
2018-05-18T13:18:52.914Z,113.13
2018-05-18T13:20:58.122Z,103.23
2018-05-18T13:23:03.337Z,83.77
2018-05-18T13:25:09.761Z,95.43
2018-05-18T13:27:16.635Z,131.40
2018-05-18T13:29:22.458Z,196.10
2018-05-18T13:31:28.288Z,192.33
2018-05-18T13:33:33.425Z,618.57
2018-05-18T13:35:38.754Z,320.40
2018-05-18T13:37:44.622Z,205.67
2018-05-18T13:39:49.939Z,186.93
2018-05-18T13:41:55.527Z,708.80
2018-05-18T13:44:01.494Z,501.03
2018-05-18T13:46:06.753Z,437.73
2018-05-18T13:48:15.089Z,340.20
2018-05-18T13:50:21.588Z,353.77
2018-05-18T13:52:27.626Z,347.43
2018-05-18T13:54:33.450Z,330.70
2018-05-18T13:56:39.402Z,294.83
2018-05-18T13:58:44.618Z,279.40
2018-05-18T14:00:49.887Z,262.60
2018-05-18T14:02:55.990Z,244.53
2018-05-18T14:05:01.298Z,246.03
2018-05-18T14:07:07.434Z,244.93
2018-05-18T14:09:16.311Z,224.27
2018-05-18T14:11:22.105Z,212.53
2018-05-18T14:13:27.326Z,212.83
2018-05-18T14:15:32.874Z,190.90
2018-05-18T14:17:37.997Z,196.63
2018-05-18T14:19:43.167Z,167.93
2018-05-18T14:21:48.978Z,164.60
2018-05-18T14:23:54.130Z,158.20
2018-05-18T14:25:59.356Z,155.10
2018-05-18T14:28:04.779Z,144.73
2018-05-18T14:30:13.373Z,150.87
2018-05-18T14:32:19.573Z,147.23
2018-05-18T14:34:26.838Z,138.43
2018-05-18T14:36:32.011Z,130.77
2018-05-18T14:38:37.194Z,132.00
2018-05-18T14:40:43.173Z,126.83
2018-05-18T14:42:48.479Z,126.83
2018-05-18T14:44:53.726Z,125.47
2018-05-18T14:46:59.155Z,113.57
2018-05-18T14:49:04.394Z,112.07
2018-05-18T14:51:12.289Z,107.30
2018-05-18T14:53:20.158Z,108.37
2018-05-18T14:55:25.500Z,99.50
2018-05-18T14:57:30.640Z,92.13
2018-05-18T14:59:36.131Z,90.33
2018-05-18T15:01:41.303Z,86.40
2018-05-18T15:03:46.479Z,85.20
2018-05-18T15:05:51.903Z,79.30
2018-05-18T15:07:57.204Z,80.23
2018-05-18T15:10:02.409Z,84.00
2018-05-18T15:12:09.843Z,77.73
2018-05-18T15:14:17.602Z,75.23
2018-05-18T15:16:23.244Z,68.70
2018-05-18T15:18:28.845Z,66.80
2018-05-18T15:20:34.035Z,64.53
2018-05-18T15:22:39.858Z,64.00
2018-05-18T15:24:45.317Z,62.37
2018-05-18T15:26:50.547Z,58.30
2018-05-18T15:28:55.832Z,55.70
2018-05-18T15:31:01.347Z,55.17
2018-05-18T15:33:06.990Z,54.90
2018-05-18T15:35:15.125Z,52.50
2018-05-18T15:37:22.444Z,51.63
2018-05-18T15:39:27.699Z,50.17
2018-05-18T15:41:32.841Z,48.63
2018-05-18T15:43:38.337Z,46.90
2018-05-18T15:45:43.591Z,44.17
2018-05-18T15:47:48.702Z,45.73
2018-05-18T15:49:54.933Z,43.90
2018-05-18T15:52:00.261Z,42.03
2018-05-18T15:54:05.719Z,40.57
2018-05-18T15:56:14.615Z,38.67
2018-05-18T15:58:21.944Z,37.87
2018-05-18T16:00:27.391Z,38.57
2018-05-18T16:02:33.599Z,36.13
2018-05-18T16:04:41.107Z,35.50
2018-05-18T16:06:48.065Z,33.17
2018-05-18T16:08:53.472Z,33.07
2018-05-18T16:10:58.714Z,34.07
2018-05-18T16:13:04.076Z,34.20
2018-05-18T16:15:12.479Z,33.93
2018-05-18T16:17:19.763Z,31.67
2018-05-18T16:19:25.317Z,33.83
2018-05-18T16:21:30.768Z,28.97
2018-05-18T16:23:35.944Z,29.43
2018-05-18T16:25:41.144Z,27.50
2018-05-18T16:27:46.590Z,28.60
2018-05-18T16:29:52.021Z,25.90
2018-05-18T16:31:57.189Z,25.60
2018-05-18T16:34:02.600Z,26.20
2018-05-18T16:36:09.125Z,25.27
2018-05-18T16:38:19.693Z,25.00
2018-05-18T16:40:25.415Z,24.00
2018-05-18T16:42:30.583Z,22.80
2018-05-18T16:44:35.674Z,22.80
2018-05-18T16:46:41.320Z,22.97
2018-05-18T16:48:46.698Z,20.90
2018-05-18T16:50:51.795Z,20.37
2018-05-18T16:52:57.237Z,19.70
2018-05-18T16:55:02.485Z,19.70
2018-05-18T16:57:08.002Z,19.47
2018-05-18T16:59:16.726Z,20.37
2018-05-18T17:01:22.954Z,18.77
2018-05-18T17:03:28.130Z,18.60
2018-05-18T17:05:33.462Z,18.00
2018-05-18T17:07:38.605Z,17.63
2018-05-18T17:09:43.924Z,17.80
2018-05-18T17:11:49.377Z,17.50
2018-05-18T17:13:54.591Z,16.87
2018-05-18T17:15:59.806Z,14.87
2018-05-18T17:18:05.610Z,15.70
2018-05-18T17:20:14.216Z,15.10
2018-05-18T17:22:21.431Z,14.77
2018-05-18T17:24:27.267Z,14.60
2018-05-18T17:26:32.662Z,14.70
2018-05-18T17:28:37.811Z,13.60
2018-05-18T17:30:43.336Z,13.67
2018-05-18T17:32:48.585Z,14.63
2018-05-18T17:34:54.111Z,14.07
2018-05-18T17:37:00.015Z,12.50
2018-05-18T17:39:05.931Z,13.63
2018-05-18T17:41:14.047Z,12.50
2018-05-18T17:43:23.790Z,13.20
2018-05-18T17:45:30.296Z,12.30
2018-05-18T17:47:35.420Z,12.97
2018-05-18T17:49:40.884Z,12.80
2018-05-18T17:51:46.309Z,11.80
2018-05-18T17:53:54.615Z,12.33
2018-05-18T17:56:00.167Z,11.50
2018-05-18T17:58:05.833Z,11.47
2018-05-18T18:00:15.132Z,11.47
2018-05-18T18:02:23.273Z,11.27
2018-05-18T18:04:29.783Z,11.07
2018-05-18T18:06:35.111Z,10.80
2018-05-18T18:08:41.045Z,9.50
2018-05-18T18:10:46.741Z,10.97
2018-05-18T18:12:52.394Z,9.97
2018-05-18T18:14:58.056Z,10.20
2018-05-18T18:17:03.203Z,9.73
2018-05-18T18:19:10.379Z,10.60
2018-05-18T18:21:18.960Z,9.20
2018-05-18T18:23:25.006Z,9.50
2018-05-18T18:25:30.679Z,9.87
2018-05-18T18:27:36.491Z,9.50
2018-05-18T18:29:42.049Z,9.70
2018-05-18T18:31:47.869Z,8.57
2018-05-18T18:33:53.823Z,8.70
2018-05-18T18:35:59.493Z,10.00
2018-05-18T18:38:05.205Z,8.90
2018-05-18T18:40:14.213Z,9.30
2018-05-18T18:42:21.133Z,9.43
2018-05-18T18:44:26.670Z,9.23
2018-05-18T18:46:32.349Z,8.40
2018-05-18T18:48:38.021Z,9.03
2018-05-18T18:50:43.155Z,8.57
2018-05-18T18:52:49.406Z,8.10
2018-05-18T18:54:54.718Z,8.70
2018-05-18T18:57:00.054Z,8.83
2018-05-18T18:59:05.795Z,8.33
2018-05-18T19:01:14.953Z,8.80
2018-05-18T19:03:22.514Z,8.20
2018-05-18T19:05:28.417Z,7.50
2018-05-18T19:07:34.244Z,8.10
2018-05-18T19:09:40.090Z,7.90
2018-05-18T19:11:45.865Z,7.80
2018-05-18T19:13:51.235Z,7.63
2018-05-18T19:15:56.495Z,7.40
2018-05-18T19:18:02.359Z,7.13
2018-05-18T19:22:21.642Z,7.10
2018-05-18T19:24:27.575Z,7.70
2018-05-18T19:26:33.219Z,8.00
2018-05-18T19:28:38.974Z,7.13
2018-05-18T19:30:45.104Z,7.30
2018-05-18T19:32:51.033Z,7.20
2018-05-18T19:34:57.007Z,7.73
2018-05-18T19:37:02.798Z,7.10
2018-05-18T19:39:09.255Z,6.60
2018-05-18T19:41:17.035Z,7.60
2018-05-18T19:43:24.605Z,6.40
2018-05-18T19:45:29.892Z,6.30
2018-05-18T19:47:35.135Z,6.77
2018-05-18T19:49:40.766Z,6.03
2018-05-18T19:51:46.755Z,6.20
2018-05-18T19:53:52.108Z,7.00
2018-05-18T19:55:57.704Z,6.87
2018-05-18T19:58:03.148Z,7.80
2018-05-18T20:00:09.287Z,6.63
2018-05-18T20:02:18.545Z,7.37
2018-05-18T20:04:24.896Z,6.70
2018-05-18T20:06:30.231Z,5.90
2018-05-18T20:08:35.746Z,6.30
2018-05-18T20:10:40.863Z,6.83
2018-05-18T20:12:45.945Z,6.13
2018-05-18T20:14:51.363Z,7.20
2018-05-18T20:16:56.478Z,7.30
2018-05-18T20:19:01.584Z,6.13
2018-05-18T20:21:07.688Z,6.07
2018-05-18T20:23:15.842Z,6.00
2018-05-18T20:25:24.126Z,6.40
2018-05-18T20:27:29.475Z,6.90
2018-05-18T20:29:34.617Z,5.67
2018-05-18T20:31:39.698Z,6.90
2018-05-18T20:33:45.202Z,6.67
2018-05-18T20:35:50.256Z,6.13
2018-05-18T20:37:55.658Z,6.93
2018-05-18T20:40:01.176Z,6.60
2018-05-18T20:42:07.021Z,6.70
2018-05-18T20:44:15.594Z,6.70
2018-05-18T20:46:23.311Z,6.30
2018-05-18T20:48:28.402Z,6.70
2018-05-18T20:50:33.514Z,6.37
2018-05-18T20:52:38.966Z,5.83
2018-05-18T20:54:44.103Z,6.03
2018-05-18T20:56:49.202Z,6.60
2018-05-18T20:58:54.573Z,6.00
2018-05-18T21:00:59.695Z,6.57
2018-05-18T21:03:04.920Z,6.60
2018-05-18T21:05:10.827Z,6.60
2018-05-18T21:07:19.524Z,6.33
2018-05-18T21:09:25.152Z,6.70
2018-05-18T21:11:30.518Z,6.30
2018-05-18T21:13:35.650Z,6.90
2018-05-18T21:15:40.850Z,7.13
2018-05-18T21:17:46.328Z,6.40
2018-05-18T21:19:51.568Z,6.47
2018-05-18T21:21:56.991Z,6.50
2018-05-18T21:24:02.458Z,6.60
2018-05-18T21:26:08.347Z,6.90
2018-05-18T21:28:16.607Z,6.83
2018-05-18T21:30:23.141Z,6.20
2018-05-18T21:32:29.044Z,7.13
2018-05-18T21:34:34.151Z,7.17
2018-05-18T21:36:39.677Z,6.87
2018-05-18T21:38:44.831Z,7.37
2018-05-18T21:40:49.902Z,7.20
2018-05-18T21:42:55.971Z,6.13
2018-05-18T21:45:01.958Z,7.10
2018-05-18T21:47:08.508Z,7.00
2018-05-18T21:49:16.788Z,7.13
2018-05-18T21:51:23.606Z,7.07
2018-05-18T21:53:30.299Z,7.50
2018-05-18T21:55:36.514Z,7.13
2018-05-18T21:57:42.006Z,7.00
2018-05-18T21:59:47.773Z,7.30
2018-05-18T22:01:53.360Z,7.00
2018-05-18T22:03:58.553Z,6.00
2018-05-18T22:06:03.824Z,6.93
2018-05-18T22:08:10.123Z,6.80
2018-05-18T22:10:18.964Z,6.90
2018-05-18T22:12:25.047Z,6.73
2018-05-18T22:14:31.181Z,7.47
2018-05-18T22:16:36.942Z,6.60
2018-05-18T22:18:42.285Z,7.07
2018-05-18T22:20:48.064Z,7.60
2018-05-18T22:22:54.133Z,7.30
2018-05-18T22:24:59.329Z,6.60
2018-05-18T22:27:04.869Z,6.60
2018-05-18T22:29:13.714Z,7.00
2018-05-18T22:31:20.054Z,6.97
2018-05-18T22:33:25.961Z,6.70
2018-05-18T22:35:31.253Z,5.90
2018-05-18T22:37:37.177Z,6.90
2018-05-18T22:39:43.484Z,7.10
2018-05-18T22:41:48.682Z,6.87
2018-05-18T22:43:54.361Z,6.60
2018-05-18T22:46:00.457Z,6.80
2018-05-18T22:48:06.874Z,6.70
2018-05-18T22:50:16.167Z,6.60
2018-05-18T22:52:22.854Z,7.37
2018-05-18T22:54:28.421Z,6.63
2018-05-18T22:56:33.918Z,7.33
2018-05-18T22:58:39.822Z,7.40
2018-05-18T23:00:45.473Z,6.63
2018-05-18T23:02:50.695Z,6.40
2018-05-18T23:04:56.119Z,6.57
2018-05-18T23:07:01.496Z,6.90
2018-05-18T23:09:07.116Z,7.00
2018-05-18T23:11:15.672Z,7.10
2018-05-18T23:13:22.951Z,6.30
2018-05-18T23:15:28.708Z,7.10
2018-05-18T23:17:34.757Z,7.37
2018-05-18T23:19:40.016Z,6.93
2018-05-18T23:21:45.603Z,7.63
2018-05-18T23:23:51.171Z,7.70
2018-05-18T23:25:56.954Z,7.93
2018-05-18T23:28:02.878Z,7.70
2018-05-18T23:30:12.877Z,7.63
2018-05-18T23:32:20.304Z,7.13
2018-05-18T23:34:25.857Z,7.47
2018-05-18T23:36:31.901Z,8.20
2018-05-18T23:38:37.287Z,7.90
2018-05-18T23:40:43.197Z,7.60
2018-05-18T23:42:49.710Z,7.57
2018-05-18T23:44:55.717Z,8.83
2018-05-18T23:47:01.720Z,7.60
2018-05-18T23:49:08.935Z,7.67
2018-05-18T23:51:16.700Z,7.73
2018-05-18T23:53:24.787Z,140.73
2018-05-18T23:55:30.322Z,155.50
2018-05-18T23:57:36.874Z,200.67
2018-05-18T23:59:42.830Z,244.53
